Map

Track Data

SID SEASON NUMBER BASIN SUBBASIN NAME ISO_TIME NATURE LAT LON WMO_WIND WMO_PRES WMO_AGENCY TRACK_TYPE DIST2LAND LANDFALL IFLAG USA_AGENCY USA_ATCF_ID USA_LAT USA_LON USA_RECORD USA_STATUS USA_WIND USA_PRES USA_SSHS USA_R34_NE USA_R34_SE USA_R34_SW USA_R34_NW USA_R50_NE USA_R50_SE USA_R50_SW USA_R50_NW USA_R64_NE USA_R64_SE USA_R64_SW USA_R64_NW USA_POCI USA_ROCI USA_RMW USA_EYE TOKYO_LAT TOKYO_LON TOKYO_GRADE TOKYO_WIND TOKYO_PRES TOKYO_R50_DIR TOKYO_R50_LONG TOKYO_R50_SHORT TOKYO_R30_DIR TOKYO_R30_LONG TOKYO_R30_SHORT TOKYO_LAND CMA_LAT CMA_LON CMA_CAT CMA_WIND CMA_PRES HKO_LAT HKO_LON HKO_CAT HKO_WIND HKO_PRES NEWDELHI_LAT NEWDELHI_LON NEWDELHI_GRADE NEWDELHI_WIND NEWDELHI_PRES NEWDELHI_CI NEWDELHI_DP NEWDELHI_POCI REUNION_LAT REUNION_LON REUNION_TYPE REUNION_WIND REUNION_PRES REUNION_TNUM REUNION_CI REUNION_RMW REUNION_R34_NE REUNION_R34_SE REUNION_R34_SW REUNION_R34_NW REUNION_R50_NE REUNION_R50_SE REUNION_R50_SW REUNION_R50_NW REUNION_R64_NE REUNION_R64_SE REUNION_R64_SW REUNION_R64_NW BOM_LAT BOM_LON BOM_TYPE BOM_WIND BOM_PRES BOM_TNUM BOM_CI BOM_RMW BOM_R34_NE BOM_R34_SE BOM_R34_SW BOM_R34_NW BOM_R50_NE BOM_R50_SE BOM_R50_SW BOM_R50_NW BOM_R64_NE BOM_R64_SE BOM_R64_SW BOM_R64_NW BOM_ROCI BOM_POCI BOM_EYE BOM_POS_METHOD BOM_PRES_METHOD NADI_LAT NADI_LON NADI_CAT NADI_WIND NADI_PRES WELLINGTON_LAT WELLINGTON_LON WELLINGTON_WIND WELLINGTON_PRES DS824_LAT DS824_LON DS824_STAGE DS824_WIND DS824_PRES TD9636_LAT TD9636_LON TD9636_STAGE TD9636_WIND TD9636_PRES TD9635_LAT TD9635_LON TD9635_WIND TD9635_PRES TD9635_ROCI NEUMANN_LAT NEUMANN_LON NEUMANN_CLASS NEUMANN_WIND NEUMANN_PRES MLC_LAT MLC_LON MLC_CLASS MLC_WIND MLC_PRES USA_GUST BOM_GUST BOM_GUST_PER REUNION_GUST REUNION_GUST_PER USA_SEAHGT USA_SEARAD_NE USA_SEARAD_SE USA_SEARAD_SW USA_SEARAD_NW STORM_SPEED STORM_DIR
1994282N17247 1994 100 EP MM ROSA 1994-10-08 12:00:00 TS 17.2000 -113.300 25 1009 hurdat_epa main 724 719 O_____________ hurdat_epa EP191994 17.2000 -113.300 TD 25 1009 -1 3 90
1994282N17247 1994 100 EP MM ROSA 1994-10-08 15:00:00 TS 17.2000 -113.142 main 714 710 P_____________ EP191994 17.2000 -113.143 TD 25 1009 -1 3 90
1994282N17247 1994 100 EP MM ROSA 1994-10-08 18:00:00 TS 17.2000 -113.000 25 1009 hurdat_epa main 710 705 O_____________ hurdat_epa EP191994 17.2000 -113.000 TD 25 1009 -1 2 90
1994282N17247 1994 100 EP MM ROSA 1994-10-08 21:00:00 TS 17.2000 -112.885 main 705 701 P_____________ EP191994 17.2000 -112.885 TD 27 1009 -1 2 90
1994282N17247 1994 100 EP MM ROSA 1994-10-09 00:00:00 TS 17.2000 -112.800 30 1009 hurdat_epa main 701 697 O_____________ hurdat_epa EP191994 17.2000 -112.800 TD 30 1009 -1 1 90
1994282N17247 1994 100 EP MM ROSA 1994-10-09 03:00:00 TS 17.2000 -112.743 main 697 697 P_____________ EP191994 17.2000 -112.743 TD 30 1009 -1 1 90
1994282N17247 1994 100 EP MM ROSA 1994-10-09 06:00:00 TS 17.2000 -112.700 30 1009 hurdat_epa main 697 697 O_____________ hurdat_epa EP191994 17.2000 -112.700 TD 30 1009 -1 1 85
1994282N17247 1994 100 EP MM ROSA 1994-10-09 09:00:00 TS 17.2075 -112.658 main 697 692 P_____________ EP191994 17.2075 -112.658 TD 27 1009 -1 1 90
1994282N17247 1994 100 EP MM ROSA 1994-10-09 12:00:00 TS 17.2000 -112.600 25 1009 hurdat_epa main 692 688 O_____________ hurdat_epa EP191994 17.2000 -112.600 TD 25 1009 -1 1 110
1994282N17247 1994 100 EP MM ROSA 1994-10-09 15:00:00 TS 17.1575 -112.515 main 688 688 P_____________ EP191994 17.1575 -112.515 TD 25 1009 -1 2 118
1994282N17247 1994 100 EP MM ROSA 1994-10-09 18:00:00 TS 17.1000 -112.400 25 1009 hurdat_epa main 695 691 O_____________ hurdat_epa EP191994 17.1000 -112.400 TD 25 1009 -1 2 115
1994282N17247 1994 100 EP MM ROSA 1994-10-09 21:00:00 TS 17.0574 -112.288 main 691 691 P_____________ EP191994 17.0574 -112.288 TD 25 1009 -1 3 109
1994282N17247 1994 100 EP MM ROSA 1994-10-10 00:00:00 TS 17.0000 -112.100 25 1009 hurdat_epa main 695 689 O_____________ hurdat_epa EP191994 17.0000 -112.100 TD 25 1009 -1 5 108
1994282N17247 1994 100 EP MM ROSA 1994-10-10 03:00:00 TS 16.9075 -111.795 main 696 691 P_____________ EP191994 16.9075 -111.795 TD 25 1009 -1 7 107
1994282N17247 1994 100 EP MM ROSA 1994-10-10 06:00:00 TS 16.8000 -111.400 25 1009 hurdat_epa main 697 687 O_____________ hurdat_epa EP191994 16.8000 -111.400 TD 25 1009 -1 8 106
1994282N17247 1994 100 EP MM ROSA 1994-10-10 09:00:00 TS 16.6750 -110.957 main 687 649 P_____________ EP191994 16.6700 -110.957 TD 25 1009 -1 9 103
1994282N17247 1994 100 EP MM ROSA 1994-10-10 12:00:00 TS 16.6000 -110.500 25 1009 hurdat_epa main 649 614 O_____________ hurdat_epa EP191994 16.6000 -110.500 TD 25 1009 -1 9 92
1994282N17247 1994 100 EP MM ROSA 1994-10-10 15:00:00 TS 16.6467 -110.063 main 614 573 P_____________ EP191994 16.6850 -110.063 TD 25 1009 -1 8 80
1994282N17247 1994 100 EP MM ROSA 1994-10-10 18:00:00 TS 16.7333 -109.700 25 1009 hurdat_epa main 573 549 O_____________ hurdat_epa EP191994 16.8000 -109.700 TD 25 1009 -1 6 78
1994282N17247 1994 100 EP MM ROSA 1994-10-10 21:00:00 TS 16.7691 -109.447 main 541 532 P_____________ EP191994 16.8074 -109.447 TD 25 1009 -1 4 80
1994282N17247 1994 100 EP MM ROSA 1994-10-11 00:00:00 TS 16.8000 -109.300 25 1009 hurdat_epa main 532 517 O_____________ hurdat_epa EP191994 16.8000 -109.300 TD 25 1009 -1 2 67
1994282N17247 1994 100 EP MM ROSA 1994-10-11 03:00:00 TS 16.8549 -109.242 main 517 517 P_____________ EP191994 16.8499 -109.243 TD 27 1009 -1 1 43
1994282N17247 1994 100 EP MM ROSA 1994-10-11 06:00:00 TS 16.9000 -109.200 30 1009 hurdat_epa main 517 508 O_____________ hurdat_epa EP191994 16.9000 -109.200 TD 30 1009 -1 2 73
1994282N17247 1994 100 EP MM ROSA 1994-10-11 09:00:00 TS 16.9075 -109.065 main 508 492 P_____________ EP191994 16.9075 -109.065 TD 30 1009 -1 3 90
1994282N17247 1994 100 EP MM ROSA 1994-10-11 12:00:00 TS 16.9000 -108.900 30 1009 hurdat_epa main 492 484 O_____________ hurdat_epa EP191994 16.9000 -108.900 TD 30 1009 -1 3 93
1994282N17247 1994 100 EP MM ROSA 1994-10-11 15:00:00 TS 16.8925 -108.742 main 476 468 P_____________ EP191994 16.8925 -108.742 TD 32 1007 -1 3 90
1994282N17247 1994 100 EP MM ROSA 1994-10-11 18:00:00 TS 16.9000 -108.600 35 1005 hurdat_epa main 468 460 O_____________ hurdat_epa EP191994 16.9000 -108.600 TS 35 1005 0 3 79
1994282N17247 1994 100 EP MM ROSA 1994-10-11 21:00:00 TS 16.9425 -108.485 main 460 445 P_____________ EP191994 16.9425 -108.485 TS 40 1002 0 2 62
1994282N17247 1994 100 EP MM ROSA 1994-10-12 00:00:00 TS 17.0000 -108.400 45 1000 hurdat_epa main 445 445 O_____________ hurdat_epa EP191994 17.0000 -108.400 TS 45 1000 0 2 50
1994282N17247 1994 100 EP MM ROSA 1994-10-12 03:00:00 TS 17.0500 -108.350 main 437 429 P_____________ EP191994 17.0500 -108.350 TS 50 997 0 1 43
1994282N17247 1994 100 EP MM ROSA 1994-10-12 06:00:00 TS 17.1000 -108.300 55 994 hurdat_epa main 429 422 O_____________ hurdat_epa EP191994 17.1000 -108.300 TS 55 994 0 2 58
1994282N17247 1994 100 EP MM ROSA 1994-10-12 09:00:00 TS 17.1425 -108.193 main 422 406 P_____________ EP191994 17.1425 -108.193 TS 57 992 0 2 62
1994282N17247 1994 100 EP MM ROSA 1994-10-12 12:00:00 TS 17.2000 -108.100 60 990 hurdat_epa main 406 399 O_____________ hurdat_epa EP191994 17.2000 -108.100 TS 60 990 0 2 34
1994282N17247 1994 100 EP MM ROSA 1994-10-12 15:00:00 TS 17.2925 -108.085 main 399 391 P_____________ EP191994 17.2925 -108.085 TS 62 987 0 2 8
1994282N17247 1994 100 EP MM ROSA 1994-10-12 18:00:00 TS 17.4000 -108.100 65 985 hurdat_epa main 391 384 O_____________ hurdat_epa EP191994 17.4000 -108.100 HU 65 985 1 2 352
1994282N17247 1994 100 EP MM ROSA 1994-10-12 21:00:00 TS 17.4925 -108.100 main 384 377 P_____________ EP191994 17.4925 -108.100 HU 67 983 1 2 8
1994282N17247 1994 100 EP MM ROSA 1994-10-13 00:00:00 TS 17.6000 -108.100 70 982 hurdat_epa main 377 370 O_____________ hurdat_epa EP191994 17.6000 -108.100 HU 70 982 1 2 0
1994282N17247 1994 100 EP MM ROSA 1994-10-13 03:00:00 TS 17.7275 -108.107 main 370 356 P_____________ EP191994 17.7275 -108.107 HU 72 980 1 3 0
1994282N17247 1994 100 EP MM ROSA 1994-10-13 06:00:00 TS 17.9000 -108.100 75 979 hurdat_epa main 356 344 O_____________ hurdat_epa EP191994 17.9000 -108.100 HU 75 979 1 4 5
1994282N17247 1994 100 EP MM ROSA 1994-10-13 09:00:00 TS 18.1425 -108.058 main 344 317 P_____________ EP191994 18.1425 -108.058 HU 77 978 1 5 11
1994282N17247 1994 100 EP MM ROSA 1994-10-13 12:00:00 TS 18.4000 -108.000 80 978 hurdat_epa main 317 305 O_____________ hurdat_epa EP191994 18.4000 -108.000 HU 80 978 1 4 11
1994282N17247 1994 100 EP MM ROSA 1994-10-13 15:00:00 TS 18.5625 -107.972 main 305 285 P_____________ EP191994 18.5625 -107.972 HU 82 977 1 4 13
1994282N17247 1994 100 EP MM ROSA 1994-10-13 18:00:00 TS 18.8000 -107.900 85 977 hurdat_epa main 285 257 O_____________ hurdat_epa EP191994 18.8000 -107.900 HU 85 977 2 7 18
1994282N17247 1994 100 EP MM ROSA 1994-10-13 21:00:00 TS 19.2250 -107.745 main 247 199 P_____________ EP191994 19.2250 -107.745 HU 87 976 2 11 21
1994282N17247 1994 100 EP MM ROSA 1994-10-14 00:00:00 TS 19.8000 -107.500 90 975 hurdat_epa main 199 156 O_____________ hurdat_epa EP191994 19.8000 -107.500 HU 90 975 2 13 22
1994282N17247 1994 100 EP MM ROSA 1994-10-14 03:00:00 TS 20.4182 -107.225 main 156 138 P_____________ EP191994 20.4075 -107.229 HU 90 974 2 16 25
1994282N17247 1994 100 EP MM ROSA 1994-10-14 06:00:00 TS 21.2000 -106.800 90 974 hurdat_epa main 142 52 O_____________ hurdat_epa EP191994 21.2000 -106.800 HU 90 974 2 21 29
1994282N17247 1994 100 EP MM ROSA 1994-10-14 09:00:00 TS 22.2094 -106.159 main 52 10 P_____________ EP191994 22.2979 -106.127 HU 90 976 2 23 31
1994282N17247 1994 100 EP MM ROSA 1994-10-14 10:00:00 TS 22.5129 -105.932 90 977 hurdat_epa main 10 0 O_____________ hurdat_epa EP191994 22.6000 -105.900 L HU 90 977 2 20 38
1994282N17247 1994 100 EP MM ROSA 1994-10-14 12:00:00 TS 23.0000 -105.500 75 980 hurdat_epa main 0 0 O_____________ hurdat_epa EP191994 23.0000 -105.500 HU 75 980 1 23 36
1994282N17247 1994 100 EP MM ROSA 1994-10-14 15:00:00 TS 24.0244 -104.738 main 0 0 P_____________ EP191994 23.9958 -104.746 HU 60 990 0 28 34
1994282N17247 1994 100 EP MM ROSA 1994-10-14 18:00:00 TS 25.3000 -103.800 45 1000 hurdat_epa main 0 0 O_____________ hurdat_epa EP191994 25.3000 -103.800 TS 45 1000 0 32 35
1994282N17247 1994 100 EP MM ROSA 1994-10-14 21:00:00 TS 26.6438 -102.701 main 0 0 P_____________ EP191994 26.6533 -102.699 TS 35 1005 0 34 37
1994282N17247 1994 100 EP MM ROSA 1994-10-15 00:00:00 TS 28.0000 -101.500 25 1010 hurdat_epa main 0 O_____________ hurdat_epa EP191994 28.0000 -101.500 TD 25 1010 -1 35 38

About IBTrACS Database

This database is a web-friendly format of International Best Track Archive for Climate Stewardship (IBTrACS), a global best track data archive curated by NOAA dating back to 1842.

Updated: 2021-12-06